sensor_id;sensor_type;location;lat;lon;timestamp;temperature;humidity
40123;DHT22;25832;45.490;4.912;2023-02-02T00:01:20;4.90;99.90
40123;DHT22;25832;45.490;4.912;2023-02-02T00:03:46;4.70;99.90
40123;DHT22;25832;45.490;4.912;2023-02-02T00:06:18;4.60;99.90
40123;DHT22;25832;45.490;4.912;2023-02-02T00:08:45;4.50;99.90
40123;DHT22;25832;45.490;4.912;2023-02-02T00:11:11;4.50;99.90
40123;DHT22;25832;45.490;4.912;2023-02-02T00:13:37;4.40;99.90
40123;DHT22;25832;45.490;4.912;2023-02-02T00:18:52;4.40;99.90
40123;DHT22;25832;45.490;4.912;2023-02-02T00:21:17;4.30;99.90
40123;DHT22;25832;45.490;4.912;2023-02-02T00:23:43;4.30;99.90
40123;DHT22;25832;45.490;4.912;2023-02-02T00:26:09;4.30;99.90
40123;DHT22;25832;45.490;4.912;2023-02-02T00:28:35;4.40;99.90
40123;DHT22;25832;45.490;4.912;2023-02-02T00:31:00;4.30;99.90
40123;DHT22;25832;45.490;4.912;2023-02-02T00:33:26;4.30;99.90
40123;DHT22;25832;45.490;4.912;2023-02-02T00:35:52;4.30;99.90
40123;DHT22;25832;45.490;4.912;2023-02-02T00:38:18;4.40;99.90
40123;DHT22;25832;45.490;4.912;2023-02-02T00:40:44;4.40;99.90
40123;DHT22;25832;45.490;4.912;2023-02-02T00:43:09;4.40;99.90
40123;DHT22;25832;45.490;4.912;2023-02-02T00:45:36;4.40;99.90
40123;DHT22;25832;45.490;4.912;2023-02-02T00:48:02;4.30;99.90
40123;DHT22;25832;45.490;4.912;2023-02-02T00:50:28;4.30;99.90
40123;DHT22;25832;45.490;4.912;2023-02-02T00:52:53;4.30;99.90
40123;DHT22;25832;45.490;4.912;2023-02-02T00:55:20;4.30;99.90
40123;DHT22;25832;45.490;4.912;2023-02-02T00:57:46;4.30;99.90
40123;DHT22;25832;45.490;4.912;2023-02-02T01:00:22;4.30;99.90
40123;DHT22;25832;45.490;4.912;2023-02-02T01:02:52;4.20;99.90
40123;DHT22;25832;45.490;4.912;2023-02-02T01:05:18;4.10;99.90
40123;DHT22;25832;45.490;4.912;2023-02-02T01:07:44;4.10;99.90
40123;DHT22;25832;45.490;4.912;2023-02-02T01:10:13;4.00;99.90
40123;DHT22;25832;45.490;4.912;2023-02-02T01:12:39;4.00;99.90
40123;DHT22;25832;45.490;4.912;2023-02-02T01:15:05;4.00;99.90
40123;DHT22;25832;45.490;4.912;2023-02-02T01:17:32;3.90;99.90
40123;DHT22;25832;45.490;4.912;2023-02-02T01:19:57;3.90;99.90
40123;DHT22;25832;45.490;4.912;2023-02-02T01:22:23;3.90;99.90
40123;DHT22;25832;45.490;4.912;2023-02-02T01:24:49;3.80;99.90
40123;DHT22;25832;45.490;4.912;2023-02-02T01:27:15;3.80;99.90
40123;DHT22;25832;45.490;4.912;2023-02-02T01:29:40;3.80;99.90
40123;DHT22;25832;45.490;4.912;2023-02-02T01:32:06;3.80;99.90
40123;DHT22;25832;45.490;4.912;2023-02-02T01:34:32;3.80;99.90
40123;DHT22;25832;45.490;4.912;2023-02-02T01:36:58;3.80;99.90
40123;DHT22;25832;45.490;4.912;2023-02-02T01:39:23;3.70;99.90
40123;DHT22;25832;45.490;4.912;2023-02-02T01:41:49;3.70;99.90
40123;DHT22;25832;45.490;4.912;2023-02-02T01:47:20;3.70;99.90
40123;DHT22;25832;45.490;4.912;2023-02-02T01:49:46;3.70;99.90
40123;DHT22;25832;45.490;4.912;2023-02-02T01:52:14;3.60;99.90
40123;DHT22;25832;45.490;4.912;2023-02-02T01:54:45;3.60;99.90
40123;DHT22;25832;45.490;4.912;2023-02-02T01:57:24;3.50;99.90
40123;DHT22;25832;45.490;4.912;2023-02-02T01:59:52;3.50;99.90
40123;DHT22;25832;45.490;4.912;2023-02-02T02:02:18;3.50;99.90
40123;DHT22;25832;45.490;4.912;2023-02-02T02:04:44;3.50;99.90
40123;DHT22;25832;45.490;4.912;2023-02-02T02:07:10;3.50;99.90
40123;DHT22;25832;45.490;4.912;2023-02-02T02:09:36;3.50;99.90
40123;DHT22;25832;45.490;4.912;2023-02-02T02:12:02;3.50;99.90
40123;DHT22;25832;45.490;4.912;2023-02-02T02:14:27;3.40;99.90
40123;DHT22;25832;45.490;4.912;2023-02-02T02:17:22;3.40;99.90
40123;DHT22;25832;45.490;4.912;2023-02-02T02:23:32;3.40;99.90
40123;DHT22;25832;45.490;4.912;2023-02-02T02:32:04;3.30;99.90
40123;DHT22;25832;45.490;4.912;2023-02-02T02:34:53;3.30;99.90
40123;DHT22;25832;45.490;4.912;2023-02-02T02:37:52;3.20;99.90
40123;DHT22;25832;45.490;4.912;2023-02-02T02:40:35;3.10;99.90
40123;DHT22;25832;45.490;4.912;2023-02-02T02:43:29;3.20;99.90
40123;DHT22;25832;45.490;4.912;2023-02-02T02:45:56;3.10;99.90
40123;DHT22;25832;45.490;4.912;2023-02-02T02:48:22;3.00;99.90
40123;DHT22;25832;45.490;4.912;2023-02-02T02:50:48;2.90;99.90
40123;DHT22;25832;45.490;4.912;2023-02-02T02:53:19;2.90;99.90
40123;DHT22;25832;45.490;4.912;2023-02-02T02:59:00;2.80;99.90
40123;DHT22;25832;45.490;4.912;2023-02-02T03:01:36;2.70;99.90
40123;DHT22;25832;45.490;4.912;2023-02-02T03:04:09;2.70;99.90
40123;DHT22;25832;45.490;4.912;2023-02-02T03:09:21;2.60;99.90
40123;DHT22;25832;45.490;4.912;2023-02-02T03:11:47;2.60;99.90
40123;DHT22;25832;45.490;4.912;2023-02-02T03:14:13;2.50;99.90
40123;DHT22;25832;45.490;4.912;2023-02-02T03:16:39;2.50;99.90
40123;DHT22;25832;45.490;4.912;2023-02-02T03:19:05;2.50;99.90
40123;DHT22;25832;45.490;4.912;2023-02-02T03:21:32;2.50;99.90
40123;DHT22;25832;45.490;4.912;2023-02-02T03:23:58;2.40;99.90
40123;DHT22;25832;45.490;4.912;2023-02-02T03:26:24;2.40;99.90
40123;DHT22;25832;45.490;4.912;2023-02-02T03:28:50;2.40;99.90
40123;DHT22;25832;45.490;4.912;2023-02-02T03:31:16;2.30;99.90
40123;DHT22;25832;45.490;4.912;2023-02-02T03:33:43;2.30;99.90
40123;DHT22;25832;45.490;4.912;2023-02-02T03:36:09;2.20;99.90
40123;DHT22;25832;45.490;4.912;2023-02-02T03:38:34;2.20;99.90
40123;DHT22;25832;45.490;4.912;2023-02-02T03:41:00;2.20;99.90
40123;DHT22;25832;45.490;4.912;2023-02-02T03:43:26;2.20;99.90
40123;DHT22;25832;45.490;4.912;2023-02-02T03:45:56;2.40;99.90
40123;DHT22;25832;45.490;4.912;2023-02-02T03:48:22;2.50;99.90
40123;DHT22;25832;45.490;4.912;2023-02-02T03:50:48;2.60;99.90
40123;DHT22;25832;45.490;4.912;2023-02-02T03:53:13;2.70;99.90
40123;DHT22;25832;45.490;4.912;2023-02-02T03:55:39;2.70;99.90
40123;DHT22;25832;45.490;4.912;2023-02-02T03:58:06;2.70;99.90
40123;DHT22;25832;45.490;4.912;2023-02-02T04:00:31;2.60;99.90
40123;DHT22;25832;45.490;4.912;2023-02-02T04:02:57;2.60;99.90
40123;DHT22;25832;45.490;4.912;2023-02-02T04:05:23;2.60;99.90
40123;DHT22;25832;45.490;4.912;2023-02-02T04:07:48;2.60;99.90
40123;DHT22;25832;45.490;4.912;2023-02-02T04:10:15;2.70;99.90
40123;DHT22;25832;45.490;4.912;2023-02-02T04:12:40;2.60;99.90
40123;DHT22;25832;45.490;4.912;2023-02-02T04:15:06;2.60;99.90
40123;DHT22;25832;45.490;4.912;2023-02-02T04:17:32;2.50;99.90
40123;DHT22;25832;45.490;4.912;2023-02-02T04:20:00;2.50;99.90
40123;DHT22;25832;45.490;4.912;2023-02-02T04:22:25;2.50;99.90
40123;DHT22;25832;45.490;4.912;2023-02-02T04:24:51;2.40;99.90
40123;DHT22;25832;45.490;4.912;2023-02-02T04:27:17;2.30;99.90
40123;DHT22;25832;45.490;4.912;2023-02-02T04:29:43;2.20;99.90
40123;DHT22;25832;45.490;4.912;2023-02-02T04:32:08;2.10;99.90
40123;DHT22;25832;45.490;4.912;2023-02-02T04:34:34;2.00;99.90
40123;DHT22;25832;45.490;4.912;2023-02-02T04:36:59;1.90;99.90
40123;DHT22;25832;45.490;4.912;2023-02-02T04:39:25;1.80;99.90
40123;DHT22;25832;45.490;4.912;2023-02-02T04:41:51;1.80;99.90
40123;DHT22;25832;45.490;4.912;2023-02-02T04:44:17;1.80;99.90
40123;DHT22;25832;45.490;4.912;2023-02-02T04:46:43;1.70;99.90
40123;DHT22;25832;45.490;4.912;2023-02-02T04:49:10;1.70;99.90
40123;DHT22;25832;45.490;4.912;2023-02-02T04:51:37;1.70;99.90
40123;DHT22;25832;45.490;4.912;2023-02-02T04:54:04;1.80;99.90
40123;DHT22;25832;45.490;4.912;2023-02-02T04:56:30;1.90;99.90
40123;DHT22;25832;45.490;4.912;2023-02-02T04:58:56;1.80;99.90
40123;DHT22;25832;45.490;4.912;2023-02-02T05:01:21;1.80;99.90
40123;DHT22;25832;45.490;4.912;2023-02-02T05:03:48;1.80;99.90
40123;DHT22;25832;45.490;4.912;2023-02-02T05:06:14;1.70;99.90
40123;DHT22;25832;45.490;4.912;2023-02-02T05:08:41;1.70;99.90
40123;DHT22;25832;45.490;4.912;2023-02-02T05:11:14;1.60;99.90
40123;DHT22;25832;45.490;4.912;2023-02-02T05:13:45;1.60;99.90
40123;DHT22;25832;45.490;4.912;2023-02-02T05:16:11;1.60;99.90
40123;DHT22;25832;45.490;4.912;2023-02-02T05:18:37;1.50;99.90
40123;DHT22;25832;45.490;4.912;2023-02-02T05:21:03;1.50;99.90
40123;DHT22;25832;45.490;4.912;2023-02-02T05:23:29;1.50;99.90
40123;DHT22;25832;45.490;4.912;2023-02-02T05:25:55;1.50;99.90
40123;DHT22;25832;45.490;4.912;2023-02-02T05:28:21;1.50;99.90
40123;DHT22;25832;45.490;4.912;2023-02-02T05:30:47;1.40;99.90
40123;DHT22;25832;45.490;4.912;2023-02-02T05:33:14;1.30;99.90
40123;DHT22;25832;45.490;4.912;2023-02-02T05:35:39;1.30;99.90
40123;DHT22;25832;45.490;4.912;2023-02-02T05:38:05;1.30;99.90
40123;DHT22;25832;45.490;4.912;2023-02-02T05:40:31;1.20;99.90
40123;DHT22;25832;45.490;4.912;2023-02-02T05:42:56;1.20;99.90
40123;DHT22;25832;45.490;4.912;2023-02-02T05:45:22;1.10;99.90
40123;DHT22;25832;45.490;4.912;2023-02-02T05:47:48;1.20;99.90
40123;DHT22;25832;45.490;4.912;2023-02-02T05:50:14;1.20;99.90
40123;DHT22;25832;45.490;4.912;2023-02-02T05:52:42;1.30;99.90
40123;DHT22;25832;45.490;4.912;2023-02-02T05:55:09;1.30;99.90
40123;DHT22;25832;45.490;4.912;2023-02-02T05:57:35;1.40;99.90
40123;DHT22;25832;45.490;4.912;2023-02-02T06:00:00;1.50;99.90
40123;DHT22;25832;45.490;4.912;2023-02-02T06:02:26;1.60;99.90
40123;DHT22;25832;45.490;4.912;2023-02-02T06:04:52;1.80;99.90
40123;DHT22;25832;45.490;4.912;2023-02-02T06:07:17;1.90;99.90
40123;DHT22;25832;45.490;4.912;2023-02-02T06:09:43;2.00;99.90
40123;DHT22;25832;45.490;4.912;2023-02-02T06:12:09;2.10;99.90
40123;DHT22;25832;45.490;4.912;2023-02-02T06:14:34;2.10;99.90
40123;DHT22;25832;45.490;4.912;2023-02-02T06:17:00;2.10;99.90
40123;DHT22;25832;45.490;4.912;2023-02-02T06:19:25;2.10;99.90
40123;DHT22;25832;45.490;4.912;2023-02-02T06:21:51;2.10;99.90
40123;DHT22;25832;45.490;4.912;2023-02-02T06:24:17;2.00;99.90
40123;DHT22;25832;45.490;4.912;2023-02-02T06:26:42;2.10;99.90
40123;DHT22;25832;45.490;4.912;2023-02-02T06:29:12;2.10;99.90
40123;DHT22;25832;45.490;4.912;2023-02-02T06:31:37;2.00;99.90
40123;DHT22;25832;45.490;4.912;2023-02-02T06:34:03;2.00;99.90
40123;DHT22;25832;45.490;4.912;2023-02-02T06:36:29;2.10;99.90
40123;DHT22;25832;45.490;4.912;2023-02-02T06:38:56;2.20;99.90
40123;DHT22;25832;45.490;4.912;2023-02-02T06:41:22;2.40;99.90
40123;DHT22;25832;45.490;4.912;2023-02-02T06:43:49;2.50;99.90
40123;DHT22;25832;45.490;4.912;2023-02-02T06:46:15;2.50;99.90
40123;DHT22;25832;45.490;4.912;2023-02-02T06:48:41;2.50;99.90
40123;DHT22;25832;45.490;4.912;2023-02-02T06:51:06;2.40;99.90
40123;DHT22;25832;45.490;4.912;2023-02-02T06:53:33;2.30;99.90
40123;DHT22;25832;45.490;4.912;2023-02-02T06:56:00;2.20;99.90
40123;DHT22;25832;45.490;4.912;2023-02-02T06:58:27;2.10;99.90
40123;DHT22;25832;45.490;4.912;2023-02-02T07:00:53;1.80;99.90
40123;DHT22;25832;45.490;4.912;2023-02-02T07:03:20;1.60;99.90
40123;DHT22;25832;45.490;4.912;2023-02-02T07:05:47;1.40;99.90
40123;DHT22;25832;45.490;4.912;2023-02-02T07:08:13;1.30;99.90
40123;DHT22;25832;45.490;4.912;2023-02-02T07:10:39;1.20;99.90
40123;DHT22;25832;45.490;4.912;2023-02-02T07:13:05;1.20;99.90
40123;DHT22;25832;45.490;4.912;2023-02-02T07:15:32;1.20;99.90
40123;DHT22;25832;45.490;4.912;2023-02-02T07:17:59;1.20;99.90
40123;DHT22;25832;45.490;4.912;2023-02-02T07:20:25;1.30;99.90
40123;DHT22;25832;45.490;4.912;2023-02-02T07:22:50;1.30;99.90
40123;DHT22;25832;45.490;4.912;2023-02-02T07:25:16;1.40;99.90
40123;DHT22;25832;45.490;4.912;2023-02-02T07:27:41;1.50;99.90
40123;DHT22;25832;45.490;4.912;2023-02-02T07:30:08;1.50;99.90
40123;DHT22;25832;45.490;4.912;2023-02-02T07:32:34;1.50;99.90
40123;DHT22;25832;45.490;4.912;2023-02-02T07:35:00;1.60;99.90
40123;DHT22;25832;45.490;4.912;2023-02-02T07:37:25;1.70;99.90
40123;DHT22;25832;45.490;4.912;2023-02-02T07:39:51;1.70;99.90
40123;DHT22;25832;45.490;4.912;2023-02-02T07:42:16;1.80;99.90
40123;DHT22;25832;45.490;4.912;2023-02-02T07:44:42;1.90;99.90
40123;DHT22;25832;45.490;4.912;2023-02-02T07:47:08;2.00;99.90
40123;DHT22;25832;45.490;4.912;2023-02-02T07:49:33;2.10;99.90
40123;DHT22;25832;45.490;4.912;2023-02-02T07:51:59;2.20;99.90
40123;DHT22;25832;45.490;4.912;2023-02-02T07:54:25;2.30;99.90
40123;DHT22;25832;45.490;4.912;2023-02-02T07:56:50;2.30;99.90
40123;DHT22;25832;45.490;4.912;2023-02-02T07:59:16;2.40;99.90
40123;DHT22;25832;45.490;4.912;2023-02-02T08:01:42;2.50;99.90
40123;DHT22;25832;45.490;4.912;2023-02-02T08:04:07;2.60;99.90
40123;DHT22;25832;45.490;4.912;2023-02-02T08:06:35;2.60;99.90
40123;DHT22;25832;45.490;4.912;2023-02-02T08:09:04;2.70;99.90
40123;DHT22;25832;45.490;4.912;2023-02-02T08:11:32;2.80;99.90
40123;DHT22;25832;45.490;4.912;2023-02-02T08:14:00;2.90;99.90
40123;DHT22;25832;45.490;4.912;2023-02-02T08:16:27;3.10;99.90
40123;DHT22;25832;45.490;4.912;2023-02-02T08:18:53;3.10;99.90
40123;DHT22;25832;45.490;4.912;2023-02-02T08:21:19;3.30;99.90
40123;DHT22;25832;45.490;4.912;2023-02-02T08:23:45;3.30;99.90
40123;DHT22;25832;45.490;4.912;2023-02-02T08:28:48;3.60;99.90
40123;DHT22;25832;45.490;4.912;2023-02-02T08:31:17;3.70;99.90
40123;DHT22;25832;45.490;4.912;2023-02-02T08:33:43;3.80;99.90
40123;DHT22;25832;45.490;4.912;2023-02-02T08:36:14;3.90;99.90
40123;DHT22;25832;45.490;4.912;2023-02-02T08:38:40;4.00;99.90
40123;DHT22;25832;45.490;4.912;2023-02-02T08:41:07;4.20;99.90
40123;DHT22;25832;45.490;4.912;2023-02-02T08:43:34;4.30;99.90
40123;DHT22;25832;45.490;4.912;2023-02-02T08:45:59;4.40;99.90
40123;DHT22;25832;45.490;4.912;2023-02-02T08:48:25;4.50;99.90
40123;DHT22;25832;45.490;4.912;2023-02-02T08:50:52;4.60;99.90
40123;DHT22;25832;45.490;4.912;2023-02-02T08:53:18;4.80;99.90
40123;DHT22;25832;45.490;4.912;2023-02-02T08:55:44;4.90;99.90
40123;DHT22;25832;45.490;4.912;2023-02-02T08:58:10;5.00;99.90
40123;DHT22;25832;45.490;4.912;2023-02-02T09:00:35;5.00;99.90
40123;DHT22;25832;45.490;4.912;2023-02-02T09:03:01;5.10;99.90
40123;DHT22;25832;45.490;4.912;2023-02-02T09:05:27;5.10;99.90
40123;DHT22;25832;45.490;4.912;2023-02-02T09:07:52;5.20;99.90
40123;DHT22;25832;45.490;4.912;2023-02-02T09:10:18;5.20;99.90
40123;DHT22;25832;45.490;4.912;2023-02-02T09:12:44;5.30;99.90
40123;DHT22;25832;45.490;4.912;2023-02-02T09:15:10;5.30;99.90
40123;DHT22;25832;45.490;4.912;2023-02-02T09:17:37;5.40;99.90
40123;DHT22;25832;45.490;4.912;2023-02-02T09:20:03;5.50;99.90
40123;DHT22;25832;45.490;4.912;2023-02-02T09:22:29;5.60;99.90
40123;DHT22;25832;45.490;4.912;2023-02-02T09:24:54;5.60;99.90
40123;DHT22;25832;45.490;4.912;2023-02-02T09:27:20;5.70;99.90
40123;DHT22;25832;45.490;4.912;2023-02-02T09:29:46;5.80;99.90
40123;DHT22;25832;45.490;4.912;2023-02-02T09:32:13;5.90;99.90
40123;DHT22;25832;45.490;4.912;2023-02-02T09:34:38;6.00;99.90
40123;DHT22;25832;45.490;4.912;2023-02-02T09:37:04;6.10;99.90
40123;DHT22;25832;45.490;4.912;2023-02-02T09:39:30;6.10;99.90
40123;DHT22;25832;45.490;4.912;2023-02-02T09:47:21;6.40;99.90
40123;DHT22;25832;45.490;4.912;2023-02-02T09:52:43;6.60;99.90
40123;DHT22;25832;45.490;4.912;2023-02-02T09:57:40;6.80;99.90
40123;DHT22;25832;45.490;4.912;2023-02-02T10:00:23;6.90;99.90
40123;DHT22;25832;45.490;4.912;2023-02-02T10:02:54;6.90;99.90
40123;DHT22;25832;45.490;4.912;2023-02-02T10:05:27;7.10;99.90
40123;DHT22;25832;45.490;4.912;2023-02-02T10:07:57;7.10;99.90
40123;DHT22;25832;45.490;4.912;2023-02-02T10:10:32;7.20;99.90
40123;DHT22;25832;45.490;4.912;2023-02-02T10:13:08;7.30;99.90
40123;DHT22;25832;45.490;4.912;2023-02-02T10:15:40;7.50;99.90
40123;DHT22;25832;45.490;4.912;2023-02-02T10:20:46;7.70;99.90
40123;DHT22;25832;45.490;4.912;2023-02-02T10:25:53;7.70;99.90
40123;DHT22;25832;45.490;4.912;2023-02-02T10:28:25;7.80;99.90
40123;DHT22;25832;45.490;4.912;2023-02-02T10:31:00;7.80;99.90
40123;DHT22;25832;45.490;4.912;2023-02-02T10:33:38;7.90;99.90
40123;DHT22;25832;45.490;4.912;2023-02-02T10:36:21;8.00;99.90
40123;DHT22;25832;45.490;4.912;2023-02-02T10:38:56;8.10;99.90
40123;DHT22;25832;45.490;4.912;2023-02-02T10:46:53;8.10;99.90
40123;DHT22;25832;45.490;4.912;2023-02-02T10:49:28;8.10;99.90
40123;DHT22;25832;45.490;4.912;2023-02-02T10:52:16;8.20;99.90
40123;DHT22;25832;45.490;4.912;2023-02-02T10:54:55;8.30;99.90
40123;DHT22;25832;45.490;4.912;2023-02-02T10:57:31;8.30;99.90
40123;DHT22;25832;45.490;4.912;2023-02-02T11:02:30;8.30;99.90
40123;DHT22;25832;45.490;4.912;2023-02-02T11:04:56;8.40;99.90
40123;DHT22;25832;45.490;4.912;2023-02-02T11:07:40;8.40;99.90
40123;DHT22;25832;45.490;4.912;2023-02-02T11:10:06;8.50;99.90
40123;DHT22;25832;45.490;4.912;2023-02-02T11:12:38;8.50;99.90
40123;DHT22;25832;45.490;4.912;2023-02-02T11:15:13;8.50;99.90
40123;DHT22;25832;45.490;4.912;2023-02-02T11:17:46;8.50;99.90
40123;DHT22;25832;45.490;4.912;2023-02-02T11:20:35;8.60;99.90
40123;DHT22;25832;45.490;4.912;2023-02-02T11:23:04;8.60;99.90
40123;DHT22;25832;45.490;4.912;2023-02-02T11:25:38;8.50;99.90
40123;DHT22;25832;45.490;4.912;2023-02-02T11:28:21;8.50;99.90
40123;DHT22;25832;45.490;4.912;2023-02-02T11:30:50;8.40;99.90
40123;DHT22;25832;45.490;4.912;2023-02-02T11:33:31;8.40;99.90
40123;DHT22;25832;45.490;4.912;2023-02-02T11:35:58;8.40;99.90
40123;DHT22;25832;45.490;4.912;2023-02-02T11:38:25;8.50;99.90
40123;DHT22;25832;45.490;4.912;2023-02-02T11:40:56;8.70;99.90
40123;DHT22;25832;45.490;4.912;2023-02-02T11:43:27;8.90;99.90
40123;DHT22;25832;45.490;4.912;2023-02-02T11:45:59;9.00;99.80
40123;DHT22;25832;45.490;4.912;2023-02-02T11:51:24;9.10;99.80
40123;DHT22;25832;45.490;4.912;2023-02-02T11:54:06;9.10;99.90
40123;DHT22;25832;45.490;4.912;2023-02-02T11:56:39;9.20;99.90
40123;DHT22;25832;45.490;4.912;2023-02-02T11:59:38;9.30;99.90
40123;DHT22;25832;45.490;4.912;2023-02-02T12:02:24;9.30;99.90
40123;DHT22;25832;45.490;4.912;2023-02-02T12:04:53;9.40;99.90
40123;DHT22;25832;45.490;4.912;2023-02-02T12:07:27;9.40;99.80
40123;DHT22;25832;45.490;4.912;2023-02-02T12:09:57;9.50;99.10
40123;DHT22;25832;45.490;4.912;2023-02-02T12:17:44;9.40;99.60
40123;DHT22;25832;45.490;4.912;2023-02-02T12:26:17;9.40;98.90
40123;DHT22;25832;45.490;4.912;2023-02-02T12:31:01;9.60;99.60
40123;DHT22;25832;45.490;4.912;2023-02-02T12:55:21;9.00;99.60
40123;DHT22;25832;45.490;4.912;2023-02-02T13:03:15;9.00;99.90
40123;DHT22;25832;45.490;4.912;2023-02-02T13:06:05;9.20;99.00
40123;DHT22;25832;45.490;4.912;2023-02-02T13:11:10;9.70;99.10
40123;DHT22;25832;45.490;4.912;2023-02-02T13:14:44;9.90;98.40
40123;DHT22;25832;45.490;4.912;2023-02-02T13:16:47;9.90;96.60
40123;DHT22;25832;45.490;4.912;2023-02-02T13:19:34;9.90;96.60
40123;DHT22;25832;45.490;4.912;2023-02-02T13:22:05;9.80;97.00
40123;DHT22;25832;45.490;4.912;2023-02-02T13:24:35;9.70;98.30
40123;DHT22;25832;45.490;4.912;2023-02-02T13:27:03;9.70;97.80
40123;DHT22;25832;45.490;4.912;2023-02-02T13:29:43;9.50;99.30
40123;DHT22;25832;45.490;4.912;2023-02-02T13:34:59;9.50;99.60
40123;DHT22;25832;45.490;4.912;2023-02-02T13:40:35;9.50;99.90
40123;DHT22;25832;45.490;4.912;2023-02-02T13:43:05;9.50;99.20
40123;DHT22;25832;45.490;4.912;2023-02-02T13:45:59;9.40;98.60
40123;DHT22;25832;45.490;4.912;2023-02-02T13:49:02;9.30;99.00
40123;DHT22;25832;45.490;4.912;2023-02-02T13:51:47;9.30;98.70
40123;DHT22;25832;45.490;4.912;2023-02-02T14:00:27;9.70;98.30
40123;DHT22;25832;45.490;4.912;2023-02-02T14:06:18;9.40;99.10
40123;DHT22;25832;45.490;4.912;2023-02-02T14:08:59;9.20;99.80
40123;DHT22;25832;45.490;4.912;2023-02-02T14:11:34;9.10;99.80
40123;DHT22;25832;45.490;4.912;2023-02-02T14:14:16;9.00;99.70
40123;DHT22;25832;45.490;4.912;2023-02-02T14:34:53;8.90;98.30
40123;DHT22;25832;45.490;4.912;2023-02-02T14:40:01;8.90;98.30
40123;DHT22;25832;45.490;4.912;2023-02-02T14:45:28;9.00;98.50
40123;DHT22;25832;45.490;4.912;2023-02-02T14:48:00;8.90;97.90
40123;DHT22;25832;45.490;4.912;2023-02-02T14:58:43;8.90;97.90
40123;DHT22;25832;45.490;4.912;2023-02-02T15:06:46;8.90;97.90
40123;DHT22;25832;45.490;4.912;2023-02-02T15:19:36;8.70;99.40
40123;DHT22;25832;45.490;4.912;2023-02-02T15:22:36;8.70;99.00
40123;DHT22;25832;45.490;4.912;2023-02-02T15:27:50;8.60;99.50
40123;DHT22;25832;45.490;4.912;2023-02-02T15:30:16;8.60;99.70
40123;DHT22;25832;45.490;4.912;2023-02-02T15:32:42;8.60;99.90
40123;DHT22;25832;45.490;4.912;2023-02-02T15:35:22;8.60;99.90
40123;DHT22;25832;45.490;4.912;2023-02-02T15:37:53;8.60;99.90
40123;DHT22;25832;45.490;4.912;2023-02-02T15:40:24;8.50;99.90
40123;DHT22;25832;45.490;4.912;2023-02-02T15:43:02;8.60;99.90
40123;DHT22;25832;45.490;4.912;2023-02-02T15:45:30;8.60;99.90
40123;DHT22;25832;45.490;4.912;2023-02-02T15:47:59;8.60;99.90
40123;DHT22;25832;45.490;4.912;2023-02-02T15:50:26;8.50;99.90
40123;DHT22;25832;45.490;4.912;2023-02-02T15:52:53;8.50;99.90
40123;DHT22;25832;45.490;4.912;2023-02-02T15:55:29;8.50;99.90
40123;DHT22;25832;45.490;4.912;2023-02-02T15:57:55;8.50;99.80
40123;DHT22;25832;45.490;4.912;2023-02-02T16:00:34;8.40;99.60
40123;DHT22;25832;45.490;4.912;2023-02-02T16:03:18;8.40;99.40
40123;DHT22;25832;45.490;4.912;2023-02-02T16:05:53;8.40;99.60
40123;DHT22;25832;45.490;4.912;2023-02-02T16:08:28;8.40;99.70
40123;DHT22;25832;45.490;4.912;2023-02-02T16:11:13;8.30;99.60
40123;DHT22;25832;45.490;4.912;2023-02-02T16:13:42;8.30;99.40
40123;DHT22;25832;45.490;4.912;2023-02-02T16:16:24;8.30;99.70
40123;DHT22;25832;45.490;4.912;2023-02-02T16:19:13;8.20;99.70
40123;DHT22;25832;45.490;4.912;2023-02-02T16:24:23;8.10;99.90
40123;DHT22;25832;45.490;4.912;2023-02-02T16:26:52;8.00;99.80
40123;DHT22;25832;45.490;4.912;2023-02-02T16:29:19;8.00;99.90
40123;DHT22;25832;45.490;4.912;2023-02-02T16:31:47;7.90;99.90
40123;DHT22;25832;45.490;4.912;2023-02-02T16:34:17;7.80;99.90
40123;DHT22;25832;45.490;4.912;2023-02-02T16:36:51;7.80;99.90
40123;DHT22;25832;45.490;4.912;2023-02-02T16:39:28;7.70;99.90
40123;DHT22;25832;45.490;4.912;2023-02-02T16:41:53;7.60;99.90
40123;DHT22;25832;45.490;4.912;2023-02-02T16:46:55;7.40;99.90
40123;DHT22;25832;45.490;4.912;2023-02-02T16:49:23;7.30;99.90
40123;DHT22;25832;45.490;4.912;2023-02-02T16:54:31;7.30;99.90
40123;DHT22;25832;45.490;4.912;2023-02-02T16:57:01;7.30;99.90
40123;DHT22;25832;45.490;4.912;2023-02-02T16:59:33;7.30;99.90
40123;DHT22;25832;45.490;4.912;2023-02-02T17:02:03;7.30;99.90
40123;DHT22;25832;45.490;4.912;2023-02-02T17:04:35;7.20;99.90
40123;DHT22;25832;45.490;4.912;2023-02-02T17:07:12;7.20;99.90
40123;DHT22;25832;45.490;4.912;2023-02-02T17:09:42;7.10;99.90
40123;DHT22;25832;45.490;4.912;2023-02-02T17:17:21;7.00;99.90
40123;DHT22;25832;45.490;4.912;2023-02-02T17:19:46;6.90;99.90
40123;DHT22;25832;45.490;4.912;2023-02-02T17:22:14;6.90;99.90
40123;DHT22;25832;45.490;4.912;2023-02-02T17:24:45;6.90;99.90
40123;DHT22;25832;45.490;4.912;2023-02-02T17:27:32;6.90;99.90
40123;DHT22;25832;45.490;4.912;2023-02-02T17:30:02;7.00;99.90
40123;DHT22;25832;45.490;4.912;2023-02-02T17:32:28;7.00;99.90
40123;DHT22;25832;45.490;4.912;2023-02-02T17:34:54;7.00;99.90
40123;DHT22;25832;45.490;4.912;2023-02-02T17:37:20;6.90;99.90
40123;DHT22;25832;45.490;4.912;2023-02-02T17:39:46;6.90;99.90
40123;DHT22;25832;45.490;4.912;2023-02-02T17:42:23;6.90;99.90
40123;DHT22;25832;45.490;4.912;2023-02-02T17:44:49;6.90;99.90
40123;DHT22;25832;45.490;4.912;2023-02-02T17:47:15;6.80;99.90
40123;DHT22;25832;45.490;4.912;2023-02-02T17:49:40;6.80;99.90
40123;DHT22;25832;45.490;4.912;2023-02-02T17:52:07;6.80;99.90
40123;DHT22;25832;45.490;4.912;2023-02-02T17:54:33;6.80;99.90
40123;DHT22;25832;45.490;4.912;2023-02-02T17:56:59;6.80;99.90
40123;DHT22;25832;45.490;4.912;2023-02-02T17:59:25;6.80;99.90
40123;DHT22;25832;45.490;4.912;2023-02-02T18:01:51;6.70;99.90
40123;DHT22;25832;45.490;4.912;2023-02-02T18:04:20;6.60;99.90
40123;DHT22;25832;45.490;4.912;2023-02-02T18:06:46;6.60;99.90
40123;DHT22;25832;45.490;4.912;2023-02-02T18:09:12;6.60;99.90
40123;DHT22;25832;45.490;4.912;2023-02-02T18:11:38;6.50;99.90
40123;DHT22;25832;45.490;4.912;2023-02-02T18:14:03;6.50;99.90
40123;DHT22;25832;45.490;4.912;2023-02-02T18:16:29;6.50;99.90
40123;DHT22;25832;45.490;4.912;2023-02-02T18:18:55;6.50;99.90
40123;DHT22;25832;45.490;4.912;2023-02-02T18:21:22;6.50;99.90
40123;DHT22;25832;45.490;4.912;2023-02-02T18:23:50;6.40;99.90
40123;DHT22;25832;45.490;4.912;2023-02-02T18:26:18;6.40;99.90
40123;DHT22;25832;45.490;4.912;2023-02-02T18:28:45;6.40;99.90
40123;DHT22;25832;45.490;4.912;2023-02-02T18:31:15;6.40;99.90
40123;DHT22;25832;45.490;4.912;2023-02-02T18:33:41;6.40;99.90
40123;DHT22;25832;45.490;4.912;2023-02-02T18:36:17;6.30;99.90
40123;DHT22;25832;45.490;4.912;2023-02-02T18:38:45;6.20;99.90
40123;DHT22;25832;45.490;4.912;2023-02-02T18:41:12;6.20;99.90
40123;DHT22;25832;45.490;4.912;2023-02-02T18:43:38;6.10;99.90
40123;DHT22;25832;45.490;4.912;2023-02-02T18:46:05;6.10;99.90
40123;DHT22;25832;45.490;4.912;2023-02-02T18:48:33;6.10;99.90
40123;DHT22;25832;45.490;4.912;2023-02-02T18:51:04;6.20;99.90